Arden, NC (28704)

12:02 PM EDT on September 04, 2015 (GMT -0400)
Drakes Meadow | | Change Station
CLOSE
Current Station
Personal Weather Station
Location: Arden, NC
Elevation: 2218 ft
Nearby Weather Stations

Elev 2218 ft 35.48 °N, 82.48 °W | Updated 3 seconds ago

Clear
Clear
79.2 °F
Feels Like 81 °F
N
1.1
Wind Variable Wind from NNW

Today
High -- | Low -- °F
--% Chance of Precip.
Yesterday
High -- | Low -- °F
Precip. -- in
7:04 AM 7:53 PM
Waning Gibbous, 58% visible
Pressure 30.04 in
Visibility 10.0 miles
Clouds Clear
Heat Index 81 °F
Dew Point 67 °F
Humidity 67%
Rainfall 0.00 in
Snow Depth Not available.
UV 9 out of 12
Pollen 8.80 out of 12
Air Quality Not available.
Flu Activity Not available.
METAR KAVL 041554Z 36005KT 10SM CLR 29/17 A3013 RMK AO2 SLP172 T02890172
Pressure 30.04 in
Visibility 10.0 miles
Clouds Clear
Heat Index 81 °F
Dew Point 67 °F
Humidity 67%
Rainfall 0.00 in
Snow Depth Not available.
UV 9 out of 12
Pollen 8.80 out of 12
Air Quality Not available.
Flu Activity Not available.
METAR KAVL 041554Z 36005KT 10SM CLR 29/17 A3013 RMK AO2 SLP172 T02890172

10-Day Weather Forecast

×

Almanac

Astronomy

Sep. 04, 2015 Rise Set
Actual Time
Civil Twilight
Nautical Twilight
Astronomical Twilight
Moon
Length of Visible Light
Length of Day
Tomorrow will be .
, % of the Moon is Illuminated

Today's Extremes

State Highs State Lows

Community

WunderPhotos

Upload Photos

1,852,210 photos uploaded!

WunderBlogs® & News

Nearby

Air Quality

  Air Quality AQ Index Pollutant
Not available.

Snow Depth

Station Depth Elevation

Earthquake Activity

City Distance Mag. Time & Date
Minimum magnitude displayed is 2.5.

Coastal Water Temperatures

Place Temperature

Stations

Nearby Weather Stations

Station Location Temp. Windchill Dew Point Humidity Wind Precip. Elev Updated Type